createdAt,value
2018-04-11T00:00:48.612Z,24.67
2018-04-11T00:03:17.000Z,27.53
2018-04-11T00:05:45.273Z,26.13
2018-04-11T00:08:13.751Z,22.70
2018-04-11T00:10:42.003Z,28.70
2018-04-11T00:13:10.309Z,25.90
2018-04-11T00:15:38.578Z,27.87
2018-04-11T00:18:06.865Z,29.57
2018-04-11T00:20:35.243Z,26.70
2018-04-11T00:23:03.527Z,22.90
2018-04-11T00:25:31.794Z,27.07
2018-04-11T00:28:00.086Z,21.40
2018-04-11T00:30:28.459Z,26.13
2018-04-11T00:32:56.759Z,24.07
2018-04-11T00:35:25.787Z,27.67
2018-04-11T00:37:54.088Z,26.90
2018-04-11T00:40:22.358Z,30.03
2018-04-11T00:42:50.756Z,25.13
2018-04-11T00:45:19.031Z,28.30
2018-04-11T00:47:47.310Z,23.73
2018-04-11T00:50:15.616Z,28.13
2018-04-11T00:55:39.838Z,28.93
2018-04-11T00:58:08.272Z,28.00
2018-04-11T01:00:36.547Z,28.67
2018-04-11T01:03:04.843Z,31.97
2018-04-11T01:05:33.123Z,27.53
2018-04-11T01:08:01.391Z,25.70
2018-04-11T01:10:29.704Z,30.57
2018-04-11T01:12:58.760Z,24.40
2018-04-11T01:15:27.038Z,29.50
2018-04-11T01:17:55.408Z,27.60
2018-04-11T01:20:23.690Z,29.83
2018-04-11T01:22:51.960Z,24.77
2018-04-11T01:25:20.343Z,28.23
2018-04-11T01:27:48.714Z,29.50
2018-04-11T01:30:17.019Z,29.70
2018-04-11T01:32:45.285Z,29.33
2018-04-11T01:35:13.607Z,36.70
2018-04-11T01:37:41.869Z,28.60
2018-04-11T01:40:11.027Z,32.30
2018-04-11T01:42:39.291Z,30.57
2018-04-11T01:45:07.575Z,28.97
2018-04-11T01:47:36.615Z,34.80
2018-04-11T01:50:05.685Z,31.30
2018-04-11T01:52:34.077Z,31.33
2018-04-11T01:55:02.434Z,33.40
2018-04-11T01:57:30.715Z,32.63
2018-04-11T01:59:59.008Z,30.57
2018-04-11T02:02:27.364Z,34.17
2018-04-11T02:04:55.663Z,29.90
2018-04-11T02:07:24.041Z,31.77
2018-04-11T02:09:52.347Z,29.50
2018-04-11T02:12:20.619Z,29.43
2018-04-11T02:14:48.934Z,31.53
2018-04-11T02:17:17.190Z,29.73
2018-04-11T02:19:45.508Z,31.43
2018-04-11T02:22:13.804Z,29.87
2018-04-11T02:24:42.171Z,30.23
2018-04-11T02:27:11.239Z,33.80
2018-04-11T02:29:39.516Z,33.43
2018-04-11T02:32:07.861Z,30.67
2018-04-11T02:34:36.108Z,35.53
2018-04-11T02:37:04.403Z,37.17
2018-04-11T02:39:33.450Z,31.30
2018-04-11T02:42:01.739Z,29.80
2018-04-11T02:44:30.822Z,31.00
2018-04-11T02:46:59.131Z,34.53
2018-04-11T02:49:28.154Z,36.10
2018-04-11T02:51:56.457Z,36.83
2018-04-11T02:54:24.744Z,36.93
2018-04-11T02:56:53.044Z,33.30
2018-04-11T02:59:21.306Z,39.20
2018-04-11T03:01:49.693Z,36.30
2018-04-11T03:04:17.978Z,40.57
2018-04-11T03:06:46.283Z,39.17
2018-04-11T03:09:14.615Z,38.03
2018-04-11T03:11:42.918Z,37.70
2018-04-11T03:14:11.970Z,41.57
2018-04-11T03:16:40.369Z,38.07
2018-04-11T03:19:08.640Z,37.77
2018-04-11T03:21:37.041Z,43.97
2018-04-11T03:24:05.319Z,42.33
2018-04-11T03:26:33.605Z,39.60
2018-04-11T03:29:02.651Z,35.67
2018-04-11T03:31:30.923Z,40.43
2018-04-11T03:33:59.332Z,36.90
2018-04-11T03:36:27.587Z,35.60
2018-04-11T03:38:55.903Z,37.10
2018-04-11T03:41:24.197Z,38.23
2018-04-11T03:43:52.594Z,33.10
2018-04-11T03:46:20.958Z,35.90
2018-04-11T03:48:49.237Z,38.77
2018-04-11T03:51:17.503Z,36.97
2018-04-11T03:53:45.890Z,32.60
2018-04-11T03:56:14.270Z,34.87
2018-04-11T03:58:42.627Z,35.43
2018-04-11T04:01:10.896Z,36.80
2018-04-11T04:03:39.200Z,30.00
2018-04-11T04:06:08.239Z,36.80
2018-04-11T04:08:37.399Z,32.50
2018-04-11T04:11:05.681Z,35.57
2018-04-11T04:13:45.885Z,37.67
2018-04-11T04:16:25.881Z,38.20
2018-04-11T04:19:05.955Z,37.43
2018-04-11T04:21:34.235Z,33.83
2018-04-11T04:24:02.560Z,38.20
2018-04-11T04:26:30.849Z,35.93
2018-04-11T04:28:59.255Z,34.40
2018-04-11T04:31:27.534Z,29.27
2018-04-11T04:33:56.008Z,38.77
2018-04-11T04:36:24.387Z,35.90
2018-04-11T04:38:52.676Z,33.40
2018-04-11T04:41:20.961Z,33.80
2018-04-11T04:43:49.259Z,37.87
2018-04-11T04:46:18.343Z,34.30
2018-04-11T04:48:47.410Z,37.00
2018-04-11T04:51:15.694Z,37.27
2018-04-11T04:53:43.984Z,38.83
2018-04-11T04:56:12.276Z,34.40
2018-04-11T04:58:41.367Z,34.57
2018-04-11T05:01:10.409Z,35.83
2018-04-11T05:03:38.685Z,35.90
2018-04-11T05:06:06.997Z,31.10
2018-04-11T05:08:35.269Z,38.83
2018-04-11T05:11:03.647Z,33.20
2018-04-11T05:13:31.924Z,32.07
2018-04-11T05:16:00.217Z,31.50
2018-04-11T05:18:28.495Z,32.27
2018-04-11T05:20:56.795Z,34.40
2018-04-11T05:23:25.083Z,34.23
2018-04-11T05:25:53.398Z,35.53
2018-04-11T05:28:21.676Z,44.23
2018-04-11T05:30:50.004Z,33.80
2018-04-11T05:33:18.344Z,34.37
2018-04-11T05:35:46.635Z,34.00
2018-04-11T05:38:14.916Z,36.10
2018-04-11T05:40:43.233Z,34.60
2018-04-11T05:43:11.503Z,36.33
2018-04-11T05:45:39.805Z,33.77
2018-04-11T05:48:08.084Z,34.27
2018-04-11T05:50:36.384Z,39.43
2018-04-11T05:53:04.727Z,36.53
2018-04-11T05:55:33.762Z,37.17
2018-04-11T05:58:02.029Z,35.47
2018-04-11T06:00:30.417Z,35.33
2018-04-11T06:02:58.706Z,38.50
2018-04-11T06:05:26.998Z,37.07
2018-04-11T06:07:56.067Z,34.23
2018-04-11T06:10:24.443Z,37.17
2018-04-11T06:12:52.723Z,34.00
2018-04-11T06:15:21.048Z,34.17
2018-04-11T06:17:49.382Z,31.67
2018-04-11T06:20:17.705Z,35.93
2018-04-11T06:22:46.797Z,34.00
2018-04-11T06:25:15.035Z,34.93
2018-04-11T06:27:43.334Z,32.70
2018-04-11T06:30:12.412Z,30.20
2018-04-11T06:32:40.712Z,36.10
2018-04-11T06:35:09.902Z,32.93
2018-04-11T06:37:38.265Z,34.47
2018-04-11T06:40:06.635Z,32.30
2018-04-11T06:42:34.935Z,33.50
2018-04-11T06:45:03.297Z,30.93
2018-04-11T06:47:31.689Z,31.53
2018-04-11T06:49:59.985Z,34.03
2018-04-11T06:52:29.034Z,34.27
2018-04-11T06:54:57.329Z,33.03
2018-04-11T06:57:25.618Z,33.87
2018-04-11T06:59:53.890Z,35.00
2018-04-11T07:02:22.959Z,30.27
2018-04-11T07:04:51.227Z,34.13
2018-04-11T07:07:19.519Z,30.60
2018-04-11T07:09:47.807Z,32.67
2018-04-11T07:12:16.183Z,28.27
2018-04-11T07:14:44.457Z,34.43
2018-04-11T07:17:12.762Z,33.20
2018-04-11T07:19:41.053Z,27.13
2018-04-11T07:22:10.101Z,29.30
2018-04-11T07:24:38.385Z,26.03
2018-04-11T07:27:06.774Z,24.43
2018-04-11T07:29:35.048Z,25.77
2018-04-11T07:32:03.342Z,27.80
2018-04-11T07:34:31.617Z,27.60
2018-04-11T07:36:59.983Z,30.50
2018-04-11T07:39:28.350Z,25.23
2018-04-11T07:41:56.641Z,23.43
2018-04-11T07:44:25.022Z,25.53
2018-04-11T07:46:53.307Z,24.30
2018-04-11T07:49:21.603Z,24.23
2018-04-11T07:51:50.634Z,25.40
2018-04-11T07:54:18.948Z,25.73
2018-04-11T07:56:47.201Z,25.00
2018-04-11T07:59:15.500Z,24.73
2018-04-11T08:01:43.880Z,27.50
2018-04-11T08:04:12.179Z,25.23
2018-04-11T08:06:41.227Z,26.93
2018-04-11T08:09:09.633Z,25.40
2018-04-11T08:11:37.906Z,25.40
2018-04-11T08:14:06.197Z,24.83
2018-04-11T08:16:34.564Z,23.00
2018-04-11T08:19:02.841Z,27.53
2018-04-11T08:21:31.109Z,23.73
2018-04-11T08:23:58.931Z,24.30
2018-04-11T08:26:27.203Z,21.67
2018-04-11T08:28:56.263Z,27.70
2018-04-11T08:31:24.538Z,26.87
2018-04-11T08:33:52.839Z,25.77
2018-04-11T08:36:21.896Z,22.37
2018-04-11T08:38:50.196Z,24.40
2018-04-11T08:41:18.671Z,26.60
2018-04-11T08:43:46.925Z,23.20
2018-04-11T08:46:15.339Z,22.70
2018-04-11T08:48:43.701Z,23.70
2018-04-11T08:51:11.996Z,23.53
2018-04-11T08:53:41.042Z,23.00
2018-04-11T08:56:09.330Z,23.00
2018-04-11T08:58:37.606Z,25.40
2018-04-11T09:01:06.011Z,23.80
2018-04-11T09:03:34.298Z,23.87
2018-04-11T09:06:02.581Z,27.20
2018-04-11T09:08:30.857Z,23.40
2018-04-11T09:10:59.149Z,22.50
2018-04-11T09:13:28.222Z,22.90
2018-04-11T09:15:56.507Z,22.93
2018-04-11T09:18:24.784Z,25.57
2018-04-11T09:20:53.071Z,23.50
2018-04-11T09:23:22.115Z,22.37
2018-04-11T09:25:50.418Z,22.13
2018-04-11T09:28:18.695Z,27.43
2018-04-11T09:30:46.987Z,24.23
2018-04-11T09:33:15.336Z,23.60
2018-04-11T09:35:44.453Z,22.37
2018-04-11T09:38:12.739Z,22.87
2018-04-11T09:40:41.033Z,22.80
2018-04-11T09:43:10.075Z,21.27
2018-04-11T09:45:38.484Z,24.20
2018-04-11T09:48:06.863Z,24.13
2018-04-11T09:50:35.134Z,20.80
2018-04-11T09:53:03.411Z,21.80
2018-04-11T09:55:31.707Z,24.67
2018-04-11T09:57:59.992Z,26.17
2018-04-11T10:00:28.372Z,23.50
2018-04-11T10:03:02.386Z,23.30
2018-04-11T10:05:30.912Z,22.73
2018-04-11T10:07:59.172Z,22.07
2018-04-11T10:10:27.578Z,24.23
2018-04-11T10:12:55.946Z,25.03
2018-04-11T10:15:24.207Z,22.00
2018-04-11T10:17:52.500Z,22.03
2018-04-11T10:20:20.982Z,26.40
2018-04-11T10:22:49.270Z,25.70
2018-04-11T10:25:17.639Z,23.20
2018-04-11T10:27:45.925Z,24.33
2018-04-11T10:30:14.313Z,25.97
2018-04-11T10:32:42.777Z,26.80
2018-04-11T10:35:11.061Z,25.30
2018-04-11T10:37:39.339Z,24.60
2018-04-11T10:40:07.610Z,22.87
2018-04-11T10:42:35.986Z,22.67
2018-04-11T10:45:04.360Z,25.63
2018-04-11T10:47:32.747Z,26.57
2018-04-11T10:50:01.011Z,25.00
2018-04-11T10:52:29.335Z,23.77
2018-04-11T10:54:57.700Z,28.57
2018-04-11T10:57:26.001Z,28.23
2018-04-11T10:59:55.033Z,28.93
2018-04-11T11:02:23.501Z,27.10
2018-04-11T11:04:51.878Z,27.40
2018-04-11T11:07:20.168Z,30.20
2018-04-11T11:09:49.204Z,29.23
2018-04-11T11:12:17.515Z,27.27
2018-04-11T11:14:45.786Z,30.10
2018-04-11T11:17:14.061Z,32.60
2018-04-11T11:20:04.177Z,31.90
2018-04-11T11:22:32.487Z,28.27
2018-04-11T11:25:01.528Z,28.70
2018-04-11T11:27:29.828Z,28.90
2018-04-11T11:29:58.086Z,30.27
2018-04-11T11:32:26.374Z,32.03
2018-04-11T11:34:54.667Z,36.07
2018-04-11T11:37:22.951Z,29.83
2018-04-11T11:39:51.237Z,28.47
2018-04-11T11:42:20.279Z,29.10
2018-04-11T11:44:48.593Z,30.23
2018-04-11T11:47:16.868Z,34.93
2018-04-11T11:49:45.254Z,30.83
2018-04-11T11:52:13.523Z,30.63
2018-04-11T11:54:42.004Z,32.97
2018-04-11T11:57:10.262Z,28.37
2018-04-11T11:59:38.555Z,31.20
2018-04-11T12:02:06.834Z,29.60
2018-04-11T12:04:35.113Z,33.33
2018-04-11T12:07:04.896Z,33.37
2018-04-11T12:09:33.195Z,32.37
2018-04-11T12:12:01.463Z,30.23
2018-04-11T12:14:29.872Z,32.20
2018-04-11T12:16:58.133Z,31.33
2018-04-11T12:19:26.474Z,34.60
2018-04-11T12:21:54.703Z,32.60
2018-04-11T12:24:22.994Z,32.37
2018-04-11T12:26:52.031Z,31.67
2018-04-11T12:29:20.337Z,33.20
2018-04-11T12:31:48.617Z,33.80
2018-04-11T12:34:16.991Z,31.00
2018-04-11T12:36:45.263Z,34.37
2018-04-11T12:39:13.554Z,34.37
2018-04-11T12:41:41.932Z,31.37
2018-04-11T12:44:10.208Z,33.70
2018-04-11T12:46:38.486Z,35.83
2018-04-11T12:49:06.774Z,33.97
2018-04-11T12:51:35.064Z,31.10
2018-04-11T12:54:03.350Z,32.03
2018-04-11T12:56:32.391Z,31.67
2018-04-11T12:59:00.664Z,34.63
2018-04-11T13:01:28.963Z,33.00
2018-04-11T13:03:57.243Z,31.43
2018-04-11T13:06:25.514Z,34.03
2018-04-11T13:08:53.799Z,33.97
2018-04-11T13:11:22.179Z,32.07
2018-04-11T13:13:50.454Z,31.33
2018-04-11T13:16:18.936Z,34.60
2018-04-11T13:18:47.213Z,31.67
2018-04-11T13:21:15.513Z,31.43
2018-04-11T13:23:43.776Z,31.43
2018-04-11T13:26:12.103Z,31.17
2018-04-11T13:28:40.362Z,30.20
2018-04-11T13:31:09.520Z,32.93
2018-04-11T13:33:37.791Z,32.73
2018-04-11T13:36:06.171Z,31.80
2018-04-11T13:38:34.456Z,31.50
2018-04-11T13:41:02.876Z,31.53
2018-04-11T13:43:32.620Z,33.90
2018-04-11T13:46:00.927Z,31.67
2018-04-11T13:48:29.298Z,32.07
2018-04-11T13:50:57.595Z,30.27
2018-04-11T13:53:25.905Z,31.77
2018-04-11T13:55:54.936Z,34.83
2018-04-11T13:58:23.232Z,33.20
2018-04-11T14:00:51.496Z,31.93
2018-04-11T14:03:19.896Z,29.00
2018-04-11T14:05:48.164Z,31.87
2018-04-11T14:08:16.520Z,32.73
2018-04-11T14:10:45.534Z,31.77
2018-04-11T14:13:13.834Z,33.07
2018-04-11T14:15:43.632Z,31.67
2018-04-11T14:18:11.924Z,31.77
2018-04-11T14:20:40.963Z,30.70
2018-04-11T14:23:09.251Z,29.93
2018-04-11T14:25:37.527Z,29.67
2018-04-11T14:28:05.848Z,30.30
2018-04-11T14:30:34.882Z,28.97
2018-04-11T14:33:03.182Z,28.13
2018-04-11T14:35:31.438Z,30.37
2018-04-11T14:37:59.755Z,30.33
2018-04-11T14:40:28.040Z,37.67
2018-04-11T14:42:56.378Z,31.90
2018-04-11T14:45:24.641Z,31.57
2018-04-11T14:47:53.707Z,29.03
2018-04-11T14:50:22.063Z,29.77
2018-04-11T14:52:50.371Z,29.60
2018-04-11T14:55:18.647Z,28.53
2018-04-11T14:57:48.437Z,29.27
2018-04-11T15:00:16.716Z,30.20
2018-04-11T15:02:45.011Z,28.33
2018-04-11T15:05:13.295Z,30.87
2018-04-11T15:07:42.331Z,29.53
2018-04-11T15:10:10.851Z,31.67
2018-04-11T15:12:39.134Z,29.07
2018-04-11T15:15:07.433Z,30.03
2018-04-11T15:17:36.478Z,27.77
2018-04-11T15:20:04.780Z,29.57
2018-04-11T15:22:33.041Z,28.03
2018-04-11T15:25:01.455Z,27.77
2018-04-11T15:27:29.783Z,28.90
2018-04-11T15:29:58.917Z,29.07
2018-04-11T15:32:27.170Z,27.17
2018-04-11T15:34:55.454Z,28.37
2018-04-11T15:37:23.731Z,26.33
2018-04-11T15:39:52.140Z,26.60
2018-04-11T15:42:21.174Z,27.73
2018-04-11T15:44:49.475Z,25.87
2018-04-11T15:47:17.747Z,29.07
2018-04-11T15:49:46.051Z,28.53
2018-04-11T15:52:14.434Z,26.23
2018-04-11T15:54:42.802Z,27.57
2018-04-11T15:57:11.083Z,30.17
2018-04-11T15:59:39.355Z,28.13
2018-04-11T16:02:07.752Z,26.43
2018-04-11T16:04:36.022Z,30.57
2018-04-11T16:07:04.315Z,28.63
2018-04-11T16:09:32.676Z,26.90
2018-04-11T16:12:01.068Z,27.13
2018-04-11T16:14:30.875Z,27.00
2018-04-11T16:16:59.167Z,29.17
2018-04-11T16:19:28.338Z,28.50
2018-04-11T16:21:56.717Z,27.87
2018-04-11T16:24:25.001Z,28.87
2018-04-11T16:26:53.285Z,26.50
2018-04-11T16:29:21.682Z,29.87
2018-04-11T16:31:50.007Z,30.17
2018-04-11T16:34:18.360Z,31.50
2018-04-11T16:36:46.691Z,32.17
2018-04-11T16:39:15.071Z,31.03
2018-04-11T16:41:43.424Z,29.93
2018-04-11T16:44:11.683Z,31.63
2018-04-11T16:46:40.005Z,27.33
2018-04-11T16:49:08.279Z,35.37
2018-04-11T16:51:36.661Z,31.63
2018-04-11T16:54:04.935Z,26.03
2018-04-11T16:56:33.418Z,31.07
2018-04-11T16:59:01.694Z,30.67
2018-04-11T17:01:30.075Z,29.60
2018-04-11T17:03:58.337Z,31.20
2018-04-11T17:06:26.602Z,28.10
2018-04-11T17:08:55.032Z,31.97
2018-04-11T17:11:23.298Z,28.33
2018-04-11T17:13:51.653Z,30.23
2018-04-11T17:16:19.923Z,27.57
2018-04-11T17:18:48.236Z,28.93
2018-04-11T17:21:28.478Z,27.27
2018-04-11T17:27:08.155Z,28.43
2018-04-11T17:29:48.352Z,26.87
2018-04-11T17:32:16.656Z,27.33
2018-04-11T17:34:44.931Z,28.17
2018-04-11T17:37:13.311Z,30.83
2018-04-11T17:39:41.588Z,31.63
2018-04-11T17:42:10.190Z,30.77
2018-04-11T17:44:38.463Z,29.53
2018-04-11T17:47:06.742Z,34.53
2018-04-11T17:49:35.029Z,31.23
2018-04-11T17:52:03.291Z,32.67
2018-04-11T17:54:31.615Z,33.27
2018-04-11T17:57:00.657Z,32.30
2018-04-11T17:59:28.972Z,33.73
2018-04-11T18:01:57.246Z,34.60
2018-04-11T18:04:25.548Z,33.03
2018-04-11T18:06:54.596Z,34.30
2018-04-11T18:09:22.893Z,34.90
2018-04-11T18:11:51.143Z,38.20
2018-04-11T18:14:19.540Z,37.80
2018-04-11T18:16:47.828Z,45.63
2018-04-11T18:19:16.108Z,36.73
2018-04-11T18:21:45.445Z,36.03
2018-04-11T18:24:13.885Z,32.80
2018-04-11T18:26:42.919Z,35.50
2018-04-11T18:29:11.215Z,36.97
2018-04-11T18:31:39.491Z,36.37
2018-04-11T18:34:07.781Z,38.20
2018-04-11T18:36:36.055Z,37.60
2018-04-11T18:39:04.356Z,36.47
2018-04-11T18:41:32.617Z,40.20
2018-04-11T18:44:00.931Z,37.03
2018-04-11T18:46:29.277Z,35.20
2018-04-11T18:48:57.584Z,35.40
2018-04-11T18:51:25.901Z,33.77
2018-04-11T18:53:54.219Z,33.70
2018-04-11T18:56:22.515Z,30.83
2018-04-11T18:58:50.790Z,34.33
2018-04-11T19:01:19.089Z,34.03
2018-04-11T19:03:47.365Z,38.33
2018-04-11T19:06:16.430Z,38.00
2018-04-11T19:08:44.705Z,39.67
2018-04-11T19:11:13.101Z,41.03
2018-04-11T19:13:41.460Z,39.60
2018-04-11T19:16:09.863Z,37.80
2018-04-11T19:18:38.153Z,39.23
2018-04-11T19:21:07.219Z,38.77
2018-04-11T19:23:35.466Z,37.40
2018-04-11T19:26:03.779Z,36.97
2018-04-11T19:28:32.154Z,36.80
2018-04-11T19:31:00.448Z,39.40
2018-04-11T19:33:28.723Z,37.50
2018-04-11T19:35:57.015Z,39.80
2018-04-11T19:38:26.075Z,36.90
2018-04-11T19:40:54.380Z,40.10
2018-04-11T19:43:22.653Z,38.10
2018-04-11T19:45:50.952Z,36.43
2018-04-11T19:48:19.993Z,34.53
2018-04-11T19:50:48.308Z,39.20
2018-04-11T19:53:16.575Z,35.00
2018-04-11T19:55:44.878Z,38.50
2018-04-11T19:58:13.909Z,38.37
2018-04-11T20:00:42.208Z,39.10
2018-04-11T20:03:10.501Z,36.77
2018-04-11T20:05:38.838Z,44.13
2018-04-11T20:08:07.095Z,39.37
2018-04-11T20:10:35.414Z,36.70
2018-04-11T20:13:03.679Z,41.70
2018-04-11T20:15:32.265Z,37.63
2018-04-11T20:18:00.560Z,37.67
2018-04-11T20:20:28.830Z,38.70
2018-04-11T20:22:57.230Z,39.97
2018-04-11T20:25:25.600Z,44.07
2018-04-11T20:27:53.886Z,39.23
2018-04-11T20:30:22.171Z,39.47
2018-04-11T20:32:50.477Z,44.63
2018-04-11T20:35:19.515Z,44.03
2018-04-11T20:37:47.819Z,37.13
2018-04-11T20:40:16.096Z,39.47
2018-04-11T20:42:44.405Z,38.87
2018-04-11T20:45:12.839Z,39.47
2018-04-11T20:47:41.114Z,46.97
2018-04-11T20:50:09.495Z,36.43
2018-04-11T20:52:37.835Z,44.33
2018-04-11T20:55:06.115Z,38.13
2018-04-11T20:57:34.413Z,37.37
2018-04-11T21:00:02.684Z,39.33
2018-04-11T21:02:30.999Z,46.40
2018-04-11T21:04:59.369Z,38.70
2018-04-11T21:07:27.673Z,41.73
2018-04-11T21:09:55.940Z,36.60
2018-04-11T21:12:24.260Z,38.67
2018-04-11T21:14:52.521Z,41.30
2018-04-11T21:17:20.851Z,35.27
2018-04-11T21:19:49.172Z,36.97
2018-04-11T21:22:18.229Z,36.40
2018-04-11T21:24:46.605Z,35.33
2018-04-11T21:27:14.880Z,35.47
2018-04-11T21:29:43.167Z,36.23
2018-04-11T21:32:11.475Z,34.90
2018-04-11T21:34:40.526Z,38.00
2018-04-11T21:37:08.833Z,35.10
2018-04-11T21:39:37.189Z,33.93
2018-04-11T21:42:05.465Z,36.60
2018-04-11T21:44:33.847Z,36.13
2018-04-11T21:47:02.127Z,37.90
2018-04-11T21:49:30.504Z,36.67
2018-04-11T21:51:58.765Z,36.00
2018-04-11T21:54:27.186Z,33.63
2018-04-11T21:56:55.455Z,37.80
2018-04-11T21:59:23.820Z,37.47
2018-04-11T22:01:52.095Z,36.10
2018-04-11T22:04:20.400Z,33.00
2018-04-11T22:06:49.445Z,39.50
2018-04-11T22:09:17.761Z,41.07
2018-04-11T22:11:46.125Z,36.97
2018-04-11T22:14:14.420Z,36.13
2018-04-11T22:16:42.694Z,34.23
2018-04-11T22:19:11.055Z,35.50
2018-04-11T22:21:39.369Z,35.10
2018-04-11T22:24:08.436Z,36.00
2018-04-11T22:26:36.713Z,35.60
2018-04-11T22:29:05.020Z,42.30
2018-04-11T22:31:34.063Z,41.30
2018-04-11T22:34:02.375Z,32.90
2018-04-11T22:36:30.788Z,28.93
2018-04-11T22:38:59.088Z,34.13
2018-04-11T22:41:27.396Z,34.67
2018-04-11T22:43:55.693Z,34.70
2018-04-11T22:46:23.967Z,31.13
2018-04-11T22:48:52.258Z,31.87
2018-04-11T22:51:21.297Z,31.60
2018-04-11T22:53:49.588Z,35.43
2018-04-11T22:56:17.854Z,31.43
2018-04-11T22:58:46.156Z,37.00
2018-04-11T23:01:14.472Z,32.07
2018-04-11T23:06:15.421Z,29.60
2018-04-11T23:08:43.690Z,30.07
2018-04-11T23:11:12.000Z,30.60
2018-04-11T23:13:40.277Z,31.57
2018-04-11T23:16:08.561Z,31.70
2018-04-11T23:18:36.836Z,31.33
2018-04-11T23:21:05.170Z,34.60
2018-04-11T23:23:33.435Z,35.80
2018-04-11T23:26:01.932Z,33.10
2018-04-11T23:28:30.307Z,29.07
2018-04-11T23:30:58.600Z,33.97
2018-04-11T23:33:26.887Z,30.53
2018-04-11T23:35:55.189Z,32.70
2018-04-11T23:38:23.479Z,27.10
2018-04-11T23:40:51.771Z,27.90
2018-04-11T23:43:20.083Z,32.07
2018-04-11T23:45:48.378Z,33.37
2018-04-11T23:48:17.463Z,38.03
2018-04-11T23:50:46.526Z,30.67
2018-04-11T23:53:14.801Z,31.20
2018-04-11T23:55:43.067Z,27.97
2018-04-11T23:58:11.383Z,31.37
